sensor_id;sensor_type;location;lat;lon;timestamp;P1;durP1;ratioP1;P2;durP2;ratioP2
21095;SDS011;10706;49.036;12.112;2023-04-24T00:00:09;10.68;;;4.18;;
21095;SDS011;10706;49.036;12.112;2023-04-24T00:02:36;11.52;;;4.65;;
21095;SDS011;10706;49.036;12.112;2023-04-24T00:05:05;12.47;;;4.50;;
21095;SDS011;10706;49.036;12.112;2023-04-24T00:07:32;11.38;;;4.28;;
21095;SDS011;10706;49.036;12.112;2023-04-24T00:09:59;11.27;;;4.05;;
21095;SDS011;10706;49.036;12.112;2023-04-24T00:12:25;12.13;;;4.55;;
21095;SDS011;10706;49.036;12.112;2023-04-24T00:14:52;8.48;;;4.10;;
21095;SDS011;10706;49.036;12.112;2023-04-24T00:17:18;9.80;;;4.30;;
21095;SDS011;10706;49.036;12.112;2023-04-24T00:19:47;10.35;;;4.55;;
21095;SDS011;10706;49.036;12.112;2023-04-24T00:22:15;9.63;;;4.47;;
21095;SDS011;10706;49.036;12.112;2023-04-24T00:24:41;15.83;;;5.03;;
21095;SDS011;10706;49.036;12.112;2023-04-24T00:27:06;11.87;;;5.17;;
21095;SDS011;10706;49.036;12.112;2023-04-24T00:29:32;11.97;;;5.10;;
21095;SDS011;10706;49.036;12.112;2023-04-24T00:31:58;13.57;;;5.50;;
21095;SDS011;10706;49.036;12.112;2023-04-24T00:34:23;14.95;;;5.85;;
21095;SDS011;10706;49.036;12.112;2023-04-24T00:36:49;15.73;;;6.43;;
21095;SDS011;10706;49.036;12.112;2023-04-24T00:39:20;12.33;;;5.50;;
21095;SDS011;10706;49.036;12.112;2023-04-24T00:41:47;13.03;;;5.47;;
21095;SDS011;10706;49.036;12.112;2023-04-24T00:44:13;14.50;;;6.27;;
21095;SDS011;10706;49.036;12.112;2023-04-24T00:46:40;12.83;;;5.83;;
21095;SDS011;10706;49.036;12.112;2023-04-24T00:49:07;17.47;;;7.27;;
21095;SDS011;10706;49.036;12.112;2023-04-24T00:51:33;13.70;;;6.40;;
21095;SDS011;10706;49.036;12.112;2023-04-24T00:53:59;16.53;;;6.80;;
21095;SDS011;10706;49.036;12.112;2023-04-24T00:56:25;21.80;;;7.95;;
21095;SDS011;10706;49.036;12.112;2023-04-24T00:58:52;14.98;;;7.28;;
21095;SDS011;10706;49.036;12.112;2023-04-24T01:01:21;16.00;;;7.43;;
21095;SDS011;10706;49.036;12.112;2023-04-24T01:03:51;16.10;;;7.18;;
21095;SDS011;10706;49.036;12.112;2023-04-24T01:06:18;16.60;;;7.00;;
21095;SDS011;10706;49.036;12.112;2023-04-24T01:08:44;18.58;;;7.30;;
21095;SDS011;10706;49.036;12.112;2023-04-24T01:11:12;14.43;;;6.37;;
21095;SDS011;10706;49.036;12.112;2023-04-24T01:13:38;20.30;;;7.57;;
21095;SDS011;10706;49.036;12.112;2023-04-24T01:16:05;15.32;;;7.45;;
21095;SDS011;10706;49.036;12.112;2023-04-24T01:18:31;14.63;;;7.00;;
21095;SDS011;10706;49.036;12.112;2023-04-24T01:20:57;16.63;;;7.47;;
21095;SDS011;10706;49.036;12.112;2023-04-24T01:23:27;18.63;;;7.13;;
21095;SDS011;10706;49.036;12.112;2023-04-24T01:25:53;15.93;;;7.05;;
21095;SDS011;10706;49.036;12.112;2023-04-24T01:28:19;17.02;;;7.28;;
21095;SDS011;10706;49.036;12.112;2023-04-24T01:30:45;21.90;;;7.43;;
21095;SDS011;10706;49.036;12.112;2023-04-24T01:33:11;21.00;;;7.60;;
21095;SDS011;10706;49.036;12.112;2023-04-24T01:35:38;18.65;;;7.78;;
21095;SDS011;10706;49.036;12.112;2023-04-24T01:38:04;19.23;;;8.20;;
21095;SDS011;10706;49.036;12.112;2023-04-24T01:40:30;18.23;;;8.93;;
21095;SDS011;10706;49.036;12.112;2023-04-24T01:42:57;20.40;;;8.93;;
21095;SDS011;10706;49.036;12.112;2023-04-24T01:45:23;19.40;;;8.70;;
21095;SDS011;10706;49.036;12.112;2023-04-24T01:47:49;17.77;;;8.60;;
21095;SDS011;10706;49.036;12.112;2023-04-24T01:50:15;17.63;;;8.50;;
21095;SDS011;10706;49.036;12.112;2023-04-24T01:52:42;19.67;;;8.87;;
21095;SDS011;10706;49.036;12.112;2023-04-24T01:55:08;17.60;;;8.68;;
21095;SDS011;10706;49.036;12.112;2023-04-24T01:57:34;23.07;;;10.27;;
21095;SDS011;10706;49.036;12.112;2023-04-24T02:00:01;18.95;;;9.45;;
21095;SDS011;10706;49.036;12.112;2023-04-24T02:02:29;20.10;;;9.47;;
21095;SDS011;10706;49.036;12.112;2023-04-24T02:04:56;19.00;;;9.35;;
21095;SDS011;10706;49.036;12.112;2023-04-24T02:07:22;18.50;;;9.27;;
21095;SDS011;10706;49.036;12.112;2023-04-24T02:09:47;20.87;;;10.33;;
21095;SDS011;10706;49.036;12.112;2023-04-24T02:12:14;21.65;;;9.52;;
21095;SDS011;10706;49.036;12.112;2023-04-24T02:14:42;19.85;;;9.48;;
21095;SDS011;10706;49.036;12.112;2023-04-24T02:17:08;23.98;;;10.00;;
21095;SDS011;10706;49.036;12.112;2023-04-24T02:19:34;19.45;;;9.05;;
21095;SDS011;10706;49.036;12.112;2023-04-24T02:22:00;18.60;;;9.35;;
21095;SDS011;10706;49.036;12.112;2023-04-24T02:24:26;17.65;;;8.95;;
21095;SDS011;10706;49.036;12.112;2023-04-24T02:26:51;23.63;;;10.02;;
21095;SDS011;10706;49.036;12.112;2023-04-24T02:29:17;19.37;;;9.57;;
21095;SDS011;10706;49.036;12.112;2023-04-24T02:31:43;22.05;;;9.55;;
21095;SDS011;10706;49.036;12.112;2023-04-24T02:34:09;20.13;;;9.43;;
21095;SDS011;10706;49.036;12.112;2023-04-24T02:36:35;27.25;;;9.35;;
21095;SDS011;10706;49.036;12.112;2023-04-24T02:39:01;19.95;;;9.18;;
21095;SDS011;10706;49.036;12.112;2023-04-24T02:41:26;18.47;;;8.97;;
21095;SDS011;10706;49.036;12.112;2023-04-24T02:43:56;22.85;;;10.43;;
21095;SDS011;10706;49.036;12.112;2023-04-24T02:46:23;18.35;;;8.95;;
21095;SDS011;10706;49.036;12.112;2023-04-24T02:48:49;21.20;;;10.17;;
21095;SDS011;10706;49.036;12.112;2023-04-24T02:51:14;21.83;;;9.90;;
21095;SDS011;10706;49.036;12.112;2023-04-24T02:53:40;21.70;;;9.90;;
21095;SDS011;10706;49.036;12.112;2023-04-24T02:56:06;19.60;;;8.83;;
21095;SDS011;10706;49.036;12.112;2023-04-24T02:58:31;24.70;;;9.93;;
21095;SDS011;10706;49.036;12.112;2023-04-24T03:00:57;20.87;;;9.30;;
21095;SDS011;10706;49.036;12.112;2023-04-24T03:03:23;24.73;;;9.10;;
21095;SDS011;10706;49.036;12.112;2023-04-24T03:05:49;19.77;;;8.67;;
21095;SDS011;10706;49.036;12.112;2023-04-24T03:08:15;20.90;;;9.37;;
21095;SDS011;10706;49.036;12.112;2023-04-24T03:10:41;18.20;;;9.20;;
21095;SDS011;10706;49.036;12.112;2023-04-24T03:13:06;21.05;;;8.57;;
21095;SDS011;10706;49.036;12.112;2023-04-24T03:15:32;18.08;;;8.20;;
21095;SDS011;10706;49.036;12.112;2023-04-24T03:17:58;17.13;;;8.07;;
21095;SDS011;10706;49.036;12.112;2023-04-24T03:20:25;16.38;;;7.90;;
21095;SDS011;10706;49.036;12.112;2023-04-24T03:22:51;18.37;;;8.67;;
21095;SDS011;10706;49.036;12.112;2023-04-24T03:25:17;17.00;;;7.40;;
21095;SDS011;10706;49.036;12.112;2023-04-24T03:27:42;19.07;;;8.27;;
21095;SDS011;10706;49.036;12.112;2023-04-24T03:30:08;18.20;;;9.03;;
21095;SDS011;10706;49.036;12.112;2023-04-24T03:32:35;16.70;;;8.20;;
21095;SDS011;10706;49.036;12.112;2023-04-24T03:35:00;15.73;;;7.90;;
21095;SDS011;10706;49.036;12.112;2023-04-24T03:37:26;18.23;;;7.83;;
21095;SDS011;10706;49.036;12.112;2023-04-24T03:39:52;18.50;;;8.23;;
21095;SDS011;10706;49.036;12.112;2023-04-24T03:42:18;16.50;;;7.47;;
21095;SDS011;10706;49.036;12.112;2023-04-24T03:44:43;21.00;;;8.47;;
21095;SDS011;10706;49.036;12.112;2023-04-24T03:47:09;16.47;;;8.17;;
21095;SDS011;10706;49.036;12.112;2023-04-24T03:49:35;16.03;;;8.00;;
21095;SDS011;10706;49.036;12.112;2023-04-24T03:52:01;17.60;;;7.77;;
21095;SDS011;10706;49.036;12.112;2023-04-24T03:54:26;17.90;;;8.83;;
21095;SDS011;10706;49.036;12.112;2023-04-24T03:56:52;18.17;;;8.40;;
21095;SDS011;10706;49.036;12.112;2023-04-24T03:59:18;19.13;;;8.67;;
21095;SDS011;10706;49.036;12.112;2023-04-24T04:01:44;19.60;;;8.60;;
21095;SDS011;10706;49.036;12.112;2023-04-24T04:04:10;19.67;;;8.50;;
21095;SDS011;10706;49.036;12.112;2023-04-24T04:06:36;17.00;;;8.47;;
21095;SDS011;10706;49.036;12.112;2023-04-24T04:09:02;16.80;;;8.20;;
21095;SDS011;10706;49.036;12.112;2023-04-24T04:11:28;19.97;;;9.07;;
21095;SDS011;10706;49.036;12.112;2023-04-24T04:13:55;19.20;;;8.83;;
21095;SDS011;10706;49.036;12.112;2023-04-24T04:16:21;17.93;;;9.07;;
21095;SDS011;10706;49.036;12.112;2023-04-24T04:18:48;18.53;;;8.87;;
21095;SDS011;10706;49.036;12.112;2023-04-24T04:21:13;21.43;;;9.43;;
21095;SDS011;10706;49.036;12.112;2023-04-24T04:23:39;19.57;;;8.97;;
21095;SDS011;10706;49.036;12.112;2023-04-24T04:26:05;19.17;;;8.83;;
21095;SDS011;10706;49.036;12.112;2023-04-24T04:28:31;18.47;;;8.53;;
21095;SDS011;10706;49.036;12.112;2023-04-24T04:30:57;17.60;;;8.50;;
21095;SDS011;10706;49.036;12.112;2023-04-24T04:33:23;20.93;;;9.30;;
21095;SDS011;10706;49.036;12.112;2023-04-24T04:35:50;17.80;;;8.83;;
21095;SDS011;10706;49.036;12.112;2023-04-24T04:38:21;18.47;;;8.17;;
21095;SDS011;10706;49.036;12.112;2023-04-24T04:40:47;18.83;;;8.23;;
21095;SDS011;10706;49.036;12.112;2023-04-24T04:43:13;17.83;;;8.97;;
21095;SDS011;10706;49.036;12.112;2023-04-24T04:45:40;15.90;;;8.20;;
21095;SDS011;10706;49.036;12.112;2023-04-24T04:48:07;17.33;;;8.30;;
21095;SDS011;10706;49.036;12.112;2023-04-24T04:50:34;15.33;;;7.40;;
21095;SDS011;10706;49.036;12.112;2023-04-24T04:53:00;15.77;;;8.00;;
21095;SDS011;10706;49.036;12.112;2023-04-24T04:55:26;15.63;;;7.20;;
21095;SDS011;10706;49.036;12.112;2023-04-24T04:57:52;16.47;;;7.50;;
21095;SDS011;10706;49.036;12.112;2023-04-24T05:00:18;15.33;;;7.80;;
21095;SDS011;10706;49.036;12.112;2023-04-24T05:02:44;17.13;;;7.63;;
21095;SDS011;10706;49.036;12.112;2023-04-24T05:05:10;16.73;;;7.60;;
21095;SDS011;10706;49.036;12.112;2023-04-24T05:07:36;13.97;;;7.00;;
21095;SDS011;10706;49.036;12.112;2023-04-24T05:10:01;14.10;;;7.30;;
21095;SDS011;10706;49.036;12.112;2023-04-24T05:12:27;18.97;;;7.03;;
21095;SDS011;10706;49.036;12.112;2023-04-24T05:14:53;15.20;;;6.45;;
21095;SDS011;10706;49.036;12.112;2023-04-24T05:17:19;13.63;;;6.30;;
21095;SDS011;10706;49.036;12.112;2023-04-24T05:19:45;12.47;;;5.90;;
21095;SDS011;10706;49.036;12.112;2023-04-24T05:22:11;15.70;;;6.27;;
21095;SDS011;10706;49.036;12.112;2023-04-24T05:24:37;14.47;;;6.03;;
21095;SDS011;10706;49.036;12.112;2023-04-24T05:27:03;13.83;;;5.60;;
21095;SDS011;10706;49.036;12.112;2023-04-24T05:29:29;12.33;;;6.63;;
21095;SDS011;10706;49.036;12.112;2023-04-24T05:31:56;13.47;;;5.97;;
21095;SDS011;10706;49.036;12.112;2023-04-24T05:34:22;12.70;;;5.00;;
21095;SDS011;10706;49.036;12.112;2023-04-24T05:36:48;15.10;;;5.97;;
21095;SDS011;10706;49.036;12.112;2023-04-24T05:39:15;11.07;;;5.23;;
21095;SDS011;10706;49.036;12.112;2023-04-24T05:41:41;10.07;;;4.60;;
21095;SDS011;10706;49.036;12.112;2023-04-24T05:44:07;11.83;;;4.93;;
21095;SDS011;10706;49.036;12.112;2023-04-24T05:46:33;12.03;;;4.50;;
21095;SDS011;10706;49.036;12.112;2023-04-24T05:48:59;10.47;;;4.23;;
21095;SDS011;10706;49.036;12.112;2023-04-24T05:51:25;10.27;;;4.10;;
21095;SDS011;10706;49.036;12.112;2023-04-24T05:53:51;9.63;;;4.30;;
21095;SDS011;10706;49.036;12.112;2023-04-24T05:56:17;12.53;;;4.47;;
21095;SDS011;10706;49.036;12.112;2023-04-24T05:58:43;8.33;;;3.70;;
21095;SDS011;10706;49.036;12.112;2023-04-24T06:01:10;7.43;;;3.80;;
21095;SDS011;10706;49.036;12.112;2023-04-24T06:03:37;10.60;;;3.97;;
21095;SDS011;10706;49.036;12.112;2023-04-24T06:06:04;8.33;;;3.80;;
21095;SDS011;10706;49.036;12.112;2023-04-24T06:08:31;9.73;;;4.50;;
21095;SDS011;10706;49.036;12.112;2023-04-24T06:10:57;9.33;;;4.83;;
21095;SDS011;10706;49.036;12.112;2023-04-24T06:13:23;7.67;;;3.50;;
21095;SDS011;10706;49.036;12.112;2023-04-24T06:15:49;9.00;;;3.70;;
21095;SDS011;10706;49.036;12.112;2023-04-24T06:18:15;7.83;;;3.60;;
21095;SDS011;10706;49.036;12.112;2023-04-24T06:20:41;11.27;;;4.77;;
21095;SDS011;10706;49.036;12.112;2023-04-24T06:23:07;7.80;;;3.70;;
21095;SDS011;10706;49.036;12.112;2023-04-24T06:25:33;10.67;;;3.73;;
21095;SDS011;10706;49.036;12.112;2023-04-24T06:27:59;10.37;;;3.53;;
21095;SDS011;10706;49.036;12.112;2023-04-24T06:30:26;7.53;;;3.30;;
21095;SDS011;10706;49.036;12.112;2023-04-24T06:32:53;7.80;;;3.50;;
21095;SDS011;10706;49.036;12.112;2023-04-24T06:35:18;9.20;;;3.80;;
21095;SDS011;10706;49.036;12.112;2023-04-24T06:37:44;10.10;;;3.43;;
21095;SDS011;10706;49.036;12.112;2023-04-24T06:40:11;7.70;;;3.67;;
21095;SDS011;10706;49.036;12.112;2023-04-24T06:42:37;7.43;;;3.83;;
21095;SDS011;10706;49.036;12.112;2023-04-24T06:45:03;8.77;;;3.70;;
21095;SDS011;10706;49.036;12.112;2023-04-24T06:47:30;7.05;;;3.25;;
21095;SDS011;10706;49.036;12.112;2023-04-24T06:49:57;10.38;;;4.20;;
21095;SDS011;10706;49.036;12.112;2023-04-24T06:52:23;7.97;;;3.50;;
21095;SDS011;10706;49.036;12.112;2023-04-24T06:54:48;12.77;;;3.88;;
21095;SDS011;10706;49.036;12.112;2023-04-24T06:57:14;10.05;;;3.78;;
21095;SDS011;10706;49.036;12.112;2023-04-24T06:59:41;8.57;;;3.72;;
21095;SDS011;10706;49.036;12.112;2023-04-24T07:02:07;6.63;;;3.53;;
21095;SDS011;10706;49.036;12.112;2023-04-24T07:04:33;9.18;;;3.47;;
21095;SDS011;10706;49.036;12.112;2023-04-24T07:06:59;6.63;;;3.42;;
21095;SDS011;10706;49.036;12.112;2023-04-24T07:09:25;6.78;;;3.47;;
21095;SDS011;10706;49.036;12.112;2023-04-24T07:11:51;5.20;;;2.97;;
21095;SDS011;10706;49.036;12.112;2023-04-24T07:14:18;4.50;;;2.78;;
21095;SDS011;10706;49.036;12.112;2023-04-24T07:16:44;8.55;;;3.13;;
21095;SDS011;10706;49.036;12.112;2023-04-24T07:19:10;8.23;;;3.40;;
21095;SDS011;10706;49.036;12.112;2023-04-24T07:21:36;5.32;;;2.85;;
21095;SDS011;10706;49.036;12.112;2023-04-24T07:24:05;5.07;;;2.55;;
21095;SDS011;10706;49.036;12.112;2023-04-24T07:26:35;5.65;;;2.63;;
21095;SDS011;10706;49.036;12.112;2023-04-24T07:29:02;6.68;;;2.90;;
21095;SDS011;10706;49.036;12.112;2023-04-24T07:31:31;3.83;;;2.08;;
21095;SDS011;10706;49.036;12.112;2023-04-24T07:33:56;3.30;;;2.10;;
21095;SDS011;10706;49.036;12.112;2023-04-24T07:36:23;4.32;;;2.20;;
21095;SDS011;10706;49.036;12.112;2023-04-24T07:38:50;4.97;;;1.90;;
21095;SDS011;10706;49.036;12.112;2023-04-24T07:41:17;5.30;;;2.00;;
21095;SDS011;10706;49.036;12.112;2023-04-24T07:43:43;4.53;;;1.92;;
21095;SDS011;10706;49.036;12.112;2023-04-24T07:46:09;5.30;;;1.92;;
21095;SDS011;10706;49.036;12.112;2023-04-24T07:48:35;3.03;;;1.60;;
21095;SDS011;10706;49.036;12.112;2023-04-24T07:51:01;4.90;;;1.70;;
21095;SDS011;10706;49.036;12.112;2023-04-24T07:53:27;8.20;;;1.80;;
21095;SDS011;10706;49.036;12.112;2023-04-24T07:55:56;4.35;;;1.70;;
21095;SDS011;10706;49.036;12.112;2023-04-24T07:58:25;2.25;;;1.50;;
21095;SDS011;10706;49.036;12.112;2023-04-24T08:00:50;4.10;;;1.48;;
21095;SDS011;10706;49.036;12.112;2023-04-24T08:03:16;3.90;;;1.75;;
21095;SDS011;10706;49.036;12.112;2023-04-24T08:05:44;2.80;;;1.50;;
21095;SDS011;10706;49.036;12.112;2023-04-24T08:08:10;3.22;;;1.58;;
21095;SDS011;10706;49.036;12.112;2023-04-24T08:10:35;3.45;;;1.70;;
21095;SDS011;10706;49.036;12.112;2023-04-24T08:13:01;3.15;;;1.40;;
21095;SDS011;10706;49.036;12.112;2023-04-24T08:15:27;2.45;;;1.38;;
21095;SDS011;10706;49.036;12.112;2023-04-24T08:17:53;4.07;;;1.42;;
21095;SDS011;10706;49.036;12.112;2023-04-24T08:20:19;5.18;;;1.30;;
21095;SDS011;10706;49.036;12.112;2023-04-24T08:22:44;3.55;;;1.30;;
21095;SDS011;10706;49.036;12.112;2023-04-24T08:25:12;2.15;;;1.10;;
21095;SDS011;10706;49.036;12.112;2023-04-24T08:27:38;3.38;;;1.30;;
21095;SDS011;10706;49.036;12.112;2023-04-24T08:30:04;3.25;;;1.20;;
21095;SDS011;10706;49.036;12.112;2023-04-24T08:32:31;7.53;;;1.50;;
21095;SDS011;10706;49.036;12.112;2023-04-24T08:34:57;1.30;;;1.10;;
21095;SDS011;10706;49.036;12.112;2023-04-24T08:37:25;4.65;;;1.33;;
21095;SDS011;10706;49.036;12.112;2023-04-24T08:39:52;3.23;;;1.10;;
21095;SDS011;10706;49.036;12.112;2023-04-24T08:42:19;3.27;;;1.50;;
21095;SDS011;10706;49.036;12.112;2023-04-24T08:44:45;3.03;;;1.60;;
21095;SDS011;10706;49.036;12.112;2023-04-24T08:47:13;3.47;;;1.60;;
21095;SDS011;10706;49.036;12.112;2023-04-24T08:49:40;6.20;;;1.63;;
21095;SDS011;10706;49.036;12.112;2023-04-24T08:52:07;2.90;;;1.60;;
21095;SDS011;10706;49.036;12.112;2023-04-24T08:54:35;5.03;;;1.87;;
21095;SDS011;10706;49.036;12.112;2023-04-24T08:57:02;6.50;;;1.80;;
21095;SDS011;10706;49.036;12.112;2023-04-24T08:59:31;6.63;;;2.00;;
21095;SDS011;10706;49.036;12.112;2023-04-24T09:01:59;2.80;;;1.80;;
21095;SDS011;10706;49.036;12.112;2023-04-24T09:04:26;3.20;;;1.80;;
21095;SDS011;10706;49.036;12.112;2023-04-24T09:06:55;6.23;;;2.20;;
21095;SDS011;10706;49.036;12.112;2023-04-24T09:09:22;10.17;;;3.20;;
21095;SDS011;10706;49.036;12.112;2023-04-24T09:11:50;5.90;;;1.77;;
21095;SDS011;10706;49.036;12.112;2023-04-24T09:14:18;7.00;;;1.90;;
21095;SDS011;10706;49.036;12.112;2023-04-24T09:16:44;7.40;;;2.03;;
21095;SDS011;10706;49.036;12.112;2023-04-24T09:19:10;4.23;;;1.97;;
21095;SDS011;10706;49.036;12.112;2023-04-24T09:21:36;4.80;;;2.03;;
21095;SDS011;10706;49.036;12.112;2023-04-24T09:24:03;4.00;;;1.47;;
21095;SDS011;10706;49.036;12.112;2023-04-24T09:26:34;3.50;;;1.60;;
21095;SDS011;10706;49.036;12.112;2023-04-24T09:29:01;4.40;;;1.50;;
21095;SDS011;10706;49.036;12.112;2023-04-24T09:31:28;2.13;;;1.40;;
21095;SDS011;10706;49.036;12.112;2023-04-24T09:33:55;5.90;;;1.50;;
21095;SDS011;10706;49.036;12.112;2023-04-24T09:36:27;2.22;;;1.20;;
21095;SDS011;10706;49.036;12.112;2023-04-24T09:39:04;1.35;;;1.17;;
21095;SDS011;10706;49.036;12.112;2023-04-24T09:41:33;1.73;;;1.42;;
21095;SDS011;10706;49.036;12.112;2023-04-24T09:44:14;2.63;;;1.30;;
21095;SDS011;10706;49.036;12.112;2023-04-24T09:46:54;2.85;;;1.48;;
21095;SDS011;10706;49.036;12.112;2023-04-24T09:49:26;2.50;;;1.30;;
21095;SDS011;10706;49.036;12.112;2023-04-24T09:54:36;1.58;;;1.10;;
21095;SDS011;10706;49.036;12.112;2023-04-24T09:57:03;2.15;;;1.10;;
21095;SDS011;10706;49.036;12.112;2023-04-24T09:59:30;2.13;;;1.23;;
21095;SDS011;10706;49.036;12.112;2023-04-24T10:01:56;2.60;;;1.20;;
21095;SDS011;10706;49.036;12.112;2023-04-24T10:04:27;1.92;;;1.10;;
21095;SDS011;10706;49.036;12.112;2023-04-24T10:06:55;2.88;;;1.40;;
21095;SDS011;10706;49.036;12.112;2023-04-24T10:09:22;3.92;;;1.40;;
21095;SDS011;10706;49.036;12.112;2023-04-24T10:11:51;1.52;;;1.13;;
21095;SDS011;10706;49.036;12.112;2023-04-24T10:14:27;3.10;;;1.42;;
21095;SDS011;10706;49.036;12.112;2023-04-24T10:16:55;2.90;;;1.50;;
21095;SDS011;10706;49.036;12.112;2023-04-24T10:19:22;1.92;;;1.20;;
21095;SDS011;10706;49.036;12.112;2023-04-24T10:21:51;2.95;;;1.60;;
21095;SDS011;10706;49.036;12.112;2023-04-24T10:24:19;2.67;;;1.17;;
21095;SDS011;10706;49.036;12.112;2023-04-24T10:26:48;2.17;;;1.30;;
21095;SDS011;10706;49.036;12.112;2023-04-24T10:29:15;1.30;;;1.10;;
21095;SDS011;10706;49.036;12.112;2023-04-24T10:31:42;2.80;;;1.30;;
21095;SDS011;10706;49.036;12.112;2023-04-24T10:34:12;3.80;;;1.38;;
21095;SDS011;10706;49.036;12.112;2023-04-24T10:36:40;1.92;;;1.40;;
21095;SDS011;10706;49.036;12.112;2023-04-24T10:39:13;3.03;;;1.50;;
21095;SDS011;10706;49.036;12.112;2023-04-24T10:41:41;3.25;;;1.38;;
21095;SDS011;10706;49.036;12.112;2023-04-24T10:44:07;4.22;;;1.40;;
21095;SDS011;10706;49.036;12.112;2023-04-24T10:46:39;1.20;;;1.08;;
21095;SDS011;10706;49.036;12.112;2023-04-24T10:49:10;2.25;;;1.50;;
21095;SDS011;10706;49.036;12.112;2023-04-24T10:51:51;6.32;;;1.60;;
21095;SDS011;10706;49.036;12.112;2023-04-24T10:54:24;3.25;;;1.70;;
21095;SDS011;10706;49.036;12.112;2023-04-24T10:56:53;3.80;;;1.10;;
21095;SDS011;10706;49.036;12.112;2023-04-24T10:59:45;2.03;;;1.30;;
21095;SDS011;10706;49.036;12.112;2023-04-24T11:02:16;2.35;;;1.30;;
21095;SDS011;10706;49.036;12.112;2023-04-24T11:04:43;1.63;;;1.27;;
21095;SDS011;10706;49.036;12.112;2023-04-24T11:07:12;3.35;;;1.30;;
21095;SDS011;10706;49.036;12.112;2023-04-24T11:09:38;2.83;;;1.67;;
21095;SDS011;10706;49.036;12.112;2023-04-24T11:12:08;1.55;;;1.13;;
21095;SDS011;10706;49.036;12.112;2023-04-24T11:17:30;3.50;;;1.90;;
21095;SDS011;10706;49.036;12.112;2023-04-24T11:20:06;1.98;;;1.42;;
21095;SDS011;10706;49.036;12.112;2023-04-24T11:22:37;3.33;;;1.20;;
21095;SDS011;10706;49.036;12.112;2023-04-24T11:25:07;5.75;;;1.58;;
21095;SDS011;10706;49.036;12.112;2023-04-24T11:27:40;3.67;;;1.50;;
21095;SDS011;10706;49.036;12.112;2023-04-24T11:30:08;2.75;;;1.60;;
21095;SDS011;10706;49.036;12.112;2023-04-24T11:35:19;2.95;;;1.58;;
21095;SDS011;10706;49.036;12.112;2023-04-24T11:37:50;4.72;;;1.95;;
21095;SDS011;10706;49.036;12.112;2023-04-24T11:40:19;4.60;;;1.57;;
21095;SDS011;10706;49.036;12.112;2023-04-24T11:42:47;3.20;;;1.60;;
21095;SDS011;10706;49.036;12.112;2023-04-24T11:45:16;2.87;;;1.40;;
21095;SDS011;10706;49.036;12.112;2023-04-24T11:47:50;3.53;;;1.40;;
21095;SDS011;10706;49.036;12.112;2023-04-24T11:50:17;1.20;;;1.03;;
21095;SDS011;10706;49.036;12.112;2023-04-24T11:52:45;1.27;;;1.13;;
21095;SDS011;10706;49.036;12.112;2023-04-24T12:00:16;2.22;;;1.13;;
21095;SDS011;10706;49.036;12.112;2023-04-24T12:02:47;5.43;;;1.42;;
21095;SDS011;10706;49.036;12.112;2023-04-24T12:05:26;2.28;;;1.00;;
21095;SDS011;10706;49.036;12.112;2023-04-24T12:08:28;4.25;;;1.60;;
21095;SDS011;10706;49.036;12.112;2023-04-24T12:10:54;1.95;;;1.35;;
21095;SDS011;10706;49.036;12.112;2023-04-24T12:13:20;3.67;;;1.30;;
21095;SDS011;10706;49.036;12.112;2023-04-24T12:15:47;1.20;;;1.00;;
21095;SDS011;10706;49.036;12.112;2023-04-24T12:18:15;2.13;;;1.50;;
21095;SDS011;10706;49.036;12.112;2023-04-24T12:20:44;4.40;;;1.55;;
21095;SDS011;10706;49.036;12.112;2023-04-24T12:23:10;1.63;;;1.10;;
21095;SDS011;10706;49.036;12.112;2023-04-24T12:25:36;4.90;;;1.40;;
21095;SDS011;10706;49.036;12.112;2023-04-24T12:30:29;2.42;;;1.30;;
21095;SDS011;10706;49.036;12.112;2023-04-24T12:33:01;1.40;;;1.25;;
21095;SDS011;10706;49.036;12.112;2023-04-24T12:35:29;3.25;;;1.20;;
21095;SDS011;10706;49.036;12.112;2023-04-24T12:38:05;3.05;;;1.40;;
21095;SDS011;10706;49.036;12.112;2023-04-24T12:40:33;2.50;;;1.35;;
21095;SDS011;10706;49.036;12.112;2023-04-24T12:42:58;4.68;;;1.40;;
21095;SDS011;10706;49.036;12.112;2023-04-24T12:45:24;3.03;;;1.40;;
21095;SDS011;10706;49.036;12.112;2023-04-24T12:47:52;2.70;;;0.95;;
21095;SDS011;10706;49.036;12.112;2023-04-24T12:50:18;3.50;;;1.30;;
21095;SDS011;10706;49.036;12.112;2023-04-24T12:52:44;2.25;;;1.40;;
21095;SDS011;10706;49.036;12.112;2023-04-24T12:55:10;1.13;;;1.02;;
21095;SDS011;10706;49.036;12.112;2023-04-24T12:57:37;2.30;;;1.00;;
21095;SDS011;10706;49.036;12.112;2023-04-24T13:00:05;3.00;;;0.98;;
21095;SDS011;10706;49.036;12.112;2023-04-24T13:02:33;1.10;;;0.93;;
21095;SDS011;10706;49.036;12.112;2023-04-24T13:04:59;3.72;;;1.33;;
21095;SDS011;10706;49.036;12.112;2023-04-24T13:07:26;2.50;;;1.10;;
21095;SDS011;10706;49.036;12.112;2023-04-24T13:09:52;3.00;;;1.30;;
21095;SDS011;10706;49.036;12.112;2023-04-24T13:12:19;1.83;;;1.30;;
21095;SDS011;10706;49.036;12.112;2023-04-24T13:14:45;1.65;;;1.05;;
21095;SDS011;10706;49.036;12.112;2023-04-24T13:17:12;2.78;;;1.23;;
21095;SDS011;10706;49.036;12.112;2023-04-24T13:19:40;2.15;;;1.27;;
21095;SDS011;10706;49.036;12.112;2023-04-24T13:22:11;4.95;;;1.60;;
21095;SDS011;10706;49.036;12.112;2023-04-24T13:24:38;2.67;;;1.38;;
21095;SDS011;10706;49.036;12.112;2023-04-24T13:27:07;3.42;;;1.30;;
21095;SDS011;10706;49.036;12.112;2023-04-24T13:29:34;1.00;;;1.00;;
21095;SDS011;10706;49.036;12.112;2023-04-24T13:32:00;1.67;;;1.10;;
21095;SDS011;10706;49.036;12.112;2023-04-24T13:34:25;2.67;;;1.17;;
21095;SDS011;10706;49.036;12.112;2023-04-24T13:36:53;3.90;;;1.05;;
21095;SDS011;10706;49.036;12.112;2023-04-24T13:39:22;1.98;;;1.30;;
21095;SDS011;10706;49.036;12.112;2023-04-24T13:41:49;1.00;;;1.00;;
21095;SDS011;10706;49.036;12.112;2023-04-24T13:44:16;1.73;;;1.17;;
21095;SDS011;10706;49.036;12.112;2023-04-24T13:46:43;5.10;;;1.15;;
21095;SDS011;10706;49.036;12.112;2023-04-24T13:49:14;2.80;;;1.33;;
21095;SDS011;10706;49.036;12.112;2023-04-24T13:51:40;2.92;;;1.10;;
21095;SDS011;10706;49.036;12.112;2023-04-24T13:54:07;2.72;;;1.20;;
21095;SDS011;10706;49.036;12.112;2023-04-24T13:56:33;2.08;;;1.10;;
21095;SDS011;10706;49.036;12.112;2023-04-24T13:58:59;2.83;;;1.40;;
21095;SDS011;10706;49.036;12.112;2023-04-24T14:01:25;4.32;;;1.30;;
21095;SDS011;10706;49.036;12.112;2023-04-24T14:03:51;1.40;;;0.90;;
21095;SDS011;10706;49.036;12.112;2023-04-24T14:06:18;3.38;;;1.27;;
21095;SDS011;10706;49.036;12.112;2023-04-24T14:08:45;2.60;;;1.00;;
21095;SDS011;10706;49.036;12.112;2023-04-24T14:11:11;3.92;;;1.40;;
21095;SDS011;10706;49.036;12.112;2023-04-24T14:13:37;1.58;;;1.13;;
21095;SDS011;10706;49.036;12.112;2023-04-24T14:16:05;5.47;;;1.35;;
21095;SDS011;10706;49.036;12.112;2023-04-24T14:18:31;4.65;;;1.77;;
21095;SDS011;10706;49.036;12.112;2023-04-24T14:20:57;5.13;;;1.50;;
21095;SDS011;10706;49.036;12.112;2023-04-24T14:23:23;2.13;;;1.50;;
21095;SDS011;10706;49.036;12.112;2023-04-24T14:25:49;4.38;;;1.35;;
21095;SDS011;10706;49.036;12.112;2023-04-24T14:28:17;4.03;;;1.50;;
21095;SDS011;10706;49.036;12.112;2023-04-24T14:30:45;2.10;;;1.47;;
21095;SDS011;10706;49.036;12.112;2023-04-24T14:33:11;3.65;;;1.77;;
21095;SDS011;10706;49.036;12.112;2023-04-24T14:35:38;3.42;;;1.45;;
21095;SDS011;10706;49.036;12.112;2023-04-24T14:38:05;3.80;;;1.60;;
21095;SDS011;10706;49.036;12.112;2023-04-24T14:40:31;2.38;;;1.45;;
21095;SDS011;10706;49.036;12.112;2023-04-24T14:42:57;4.03;;;1.77;;